sensor_id;sensor_type;location;lat;lon;timestamp;pressure;altitude;pressure_sealevel;temperature;humidity
11648;BME280;5880;52.342;9.662;2023-09-07T00:01:57;101579.19;;;24.69;42.40
11648;BME280;5880;52.342;9.662;2023-09-07T00:04:23;101591.44;;;24.73;42.73
11648;BME280;5880;52.342;9.662;2023-09-07T00:06:49;101585.41;;;24.66;43.07
11648;BME280;5880;52.342;9.662;2023-09-07T00:09:16;101591.81;;;24.67;43.02
11648;BME280;5880;52.342;9.662;2023-09-07T00:11:44;101585.69;;;24.64;42.85
11648;BME280;5880;52.342;9.662;2023-09-07T00:14:11;101586.31;;;24.61;43.03
11648;BME280;5880;52.342;9.662;2023-09-07T00:16:36;101583.28;;;24.58;43.29
11648;BME280;5880;52.342;9.662;2023-09-07T00:19:04;101593.34;;;24.59;43.24
11648;BME280;5880;52.342;9.662;2023-09-07T00:21:31;101585.56;;;24.56;43.22
11648;BME280;5880;52.342;9.662;2023-09-07T00:23:56;101587.84;;;24.54;43.45
11648;BME280;5880;52.342;9.662;2023-09-07T00:26:22;101580.88;;;24.51;43.45
11648;BME280;5880;52.342;9.662;2023-09-07T00:28:48;101586.50;;;24.46;43.31
11648;BME280;5880;52.342;9.662;2023-09-07T00:31:13;101585.47;;;24.42;43.27
11648;BME280;5880;52.342;9.662;2023-09-07T00:33:39;101584.09;;;24.39;43.31
11648;BME280;5880;52.342;9.662;2023-09-07T00:36:05;101580.47;;;24.39;43.53
11648;BME280;5880;52.342;9.662;2023-09-07T00:38:31;101581.09;;;24.36;43.29
11648;BME280;5880;52.342;9.662;2023-09-07T00:40:57;101575.88;;;24.29;43.58
11648;BME280;5880;52.342;9.662;2023-09-07T00:43:22;101575.88;;;24.29;43.55
11648;BME280;5880;52.342;9.662;2023-09-07T00:45:49;101592.09;;;24.27;43.67
11648;BME280;5880;52.342;9.662;2023-09-07T00:48:16;101597.47;;;24.23;43.11
11648;BME280;5880;52.342;9.662;2023-09-07T00:50:43;101588.88;;;24.20;43.50
11648;BME280;5880;52.342;9.662;2023-09-07T00:53:10;101587.50;;;24.17;43.55
11648;BME280;5880;52.342;9.662;2023-09-07T00:55:37;101584.47;;;24.14;43.72
11648;BME280;5880;52.342;9.662;2023-09-07T00:58:04;101585.63;;;24.13;43.55
11648;BME280;5880;52.342;9.662;2023-09-07T01:00:30;101585.91;;;24.11;43.92
11648;BME280;5880;52.342;9.662;2023-09-07T01:02:57;101597.69;;;24.08;43.70
11648;BME280;5880;52.342;9.662;2023-09-07T01:05:34;101588.78;;;24.06;43.69
11648;BME280;5880;52.342;9.662;2023-09-07T01:08:14;101582.97;;;24.02;43.63
11648;BME280;5880;52.342;9.662;2023-09-07T01:10:42;101588.09;;;23.95;43.74
11648;BME280;5880;52.342;9.662;2023-09-07T01:13:08;101587.25;;;23.95;44.05
11648;BME280;5880;52.342;9.662;2023-09-07T01:15:34;101587.03;;;23.91;43.84
11648;BME280;5880;52.342;9.662;2023-09-07T01:18:01;101579.84;;;23.85;44.01
11648;BME280;5880;52.342;9.662;2023-09-07T01:20:28;101580.44;;;23.82;43.91
11648;BME280;5880;52.342;9.662;2023-09-07T01:22:55;101581.88;;;23.79;43.85
11648;BME280;5880;52.342;9.662;2023-09-07T01:25:23;101578.25;;;23.79;43.91
11648;BME280;5880;52.342;9.662;2023-09-07T01:27:50;101572.19;;;23.72;44.13
11648;BME280;5880;52.342;9.662;2023-09-07T01:30:16;101571.66;;;23.70;44.08
11648;BME280;5880;52.342;9.662;2023-09-07T01:32:42;101572.47;;;23.70;43.91
11648;BME280;5880;52.342;9.662;2023-09-07T01:35:10;101566.97;;;23.65;43.99
11648;BME280;5880;52.342;9.662;2023-09-07T01:37:36;101567.84;;;23.60;44.17
11648;BME280;5880;52.342;9.662;2023-09-07T01:40:02;101561.19;;;23.56;44.10
11648;BME280;5880;52.342;9.662;2023-09-07T01:42:33;101565.94;;;23.56;44.16
11648;BME280;5880;52.342;9.662;2023-09-07T01:44:59;101566.25;;;23.54;44.00
11648;BME280;5880;52.342;9.662;2023-09-07T01:47:24;101569.63;;;23.51;44.06
11648;BME280;5880;52.342;9.662;2023-09-07T01:49:50;101568.03;;;23.45;44.15
11648;BME280;5880;52.342;9.662;2023-09-07T01:52:15;101565.53;;;23.44;44.19
11648;BME280;5880;52.342;9.662;2023-09-07T01:54:41;101570.88;;;23.40;44.10
11648;BME280;5880;52.342;9.662;2023-09-07T01:57:07;101565.03;;;23.36;44.05
11648;BME280;5880;52.342;9.662;2023-09-07T01:59:32;101572.03;;;23.34;44.05
11648;BME280;5880;52.342;9.662;2023-09-07T02:01:58;101568.22;;;23.30;44.17
11648;BME280;5880;52.342;9.662;2023-09-07T02:04:24;101579.09;;;23.26;44.34
11648;BME280;5880;52.342;9.662;2023-09-07T02:06:49;101582.19;;;23.25;44.21
11648;BME280;5880;52.342;9.662;2023-09-07T02:09:15;101579.16;;;23.21;44.31
11648;BME280;5880;52.342;9.662;2023-09-07T02:11:41;101579.16;;;23.21;44.23
11648;BME280;5880;52.342;9.662;2023-09-07T02:14:06;101580.88;;;23.17;44.34
11648;BME280;5880;52.342;9.662;2023-09-07T02:16:32;101579.22;;;23.16;44.22
11648;BME280;5880;52.342;9.662;2023-09-07T02:19:03;101583.44;;;23.13;44.47
11648;BME280;5880;52.342;9.662;2023-09-07T02:21:29;101578.75;;;23.09;44.44
11648;BME280;5880;52.342;9.662;2023-09-07T02:23:55;101571.53;;;23.03;44.38
11648;BME280;5880;52.342;9.662;2023-09-07T02:26:22;101567.94;;;22.97;44.19
11648;BME280;5880;52.342;9.662;2023-09-07T02:28:48;101583.28;;;23.00;44.43
11648;BME280;5880;52.342;9.662;2023-09-07T02:31:13;101577.41;;;22.96;44.52
11648;BME280;5880;52.342;9.662;2023-09-07T02:33:39;101571.91;;;22.91;44.54
11648;BME280;5880;52.342;9.662;2023-09-07T02:36:05;101585.00;;;22.90;44.58
11648;BME280;5880;52.342;9.662;2023-09-07T02:38:31;101574.69;;;22.91;44.40
11648;BME280;5880;52.342;9.662;2023-09-07T02:40:57;101581.69;;;22.88;44.52
11648;BME280;5880;52.342;9.662;2023-09-07T02:43:23;101583.91;;;22.86;44.69
11648;BME280;5880;52.342;9.662;2023-09-07T02:48:24;101584.56;;;22.78;44.88
11648;BME280;5880;52.342;9.662;2023-09-07T02:50:50;101575.41;;;22.72;44.77
11648;BME280;5880;52.342;9.662;2023-09-07T02:53:16;101573.75;;;22.71;44.80
11648;BME280;5880;52.342;9.662;2023-09-07T02:55:42;101581.78;;;22.73;44.92
11648;BME280;5880;52.342;9.662;2023-09-07T02:58:08;101584.31;;;22.74;45.02
11648;BME280;5880;52.342;9.662;2023-09-07T03:00:33;101583.75;;;22.72;45.00
11648;BME280;5880;52.342;9.662;2023-09-07T03:03:00;101582.09;;;22.71;45.22
11648;BME280;5880;52.342;9.662;2023-09-07T03:05:29;101587.69;;;22.71;45.18
11648;BME280;5880;52.342;9.662;2023-09-07T03:07:55;101577.09;;;22.68;45.11
11648;BME280;5880;52.342;9.662;2023-09-07T03:10:20;101576.03;;;22.64;45.25
11648;BME280;5880;52.342;9.662;2023-09-07T03:12:46;101575.78;;;22.61;45.44
11648;BME280;5880;52.342;9.662;2023-09-07T03:15:12;101577.97;;;22.64;45.43
11648;BME280;5880;52.342;9.662;2023-09-07T03:17:37;101560.22;;;22.54;45.34
11648;BME280;5880;52.342;9.662;2023-09-07T03:20:04;101573.56;;;22.58;45.53
11648;BME280;5880;52.342;9.662;2023-09-07T03:22:43;101583.31;;;22.60;45.39
11648;BME280;5880;52.342;9.662;2023-09-07T03:25:10;101582.75;;;22.58;45.34
11648;BME280;5880;52.342;9.662;2023-09-07T03:27:36;101568.88;;;22.53;45.59
11648;BME280;5880;52.342;9.662;2023-09-07T03:30:03;101567.78;;;22.49;45.47
11648;BME280;5880;52.342;9.662;2023-09-07T03:32:29;101578.34;;;22.52;45.61
11648;BME280;5880;52.342;9.662;2023-09-07T03:34:59;101583.63;;;22.53;45.60
11648;BME280;5880;52.342;9.662;2023-09-07T03:37:27;101576.41;;;22.47;45.55
11648;BME280;5880;52.342;9.662;2023-09-07T03:39:53;101583.38;;;22.50;45.68
11648;BME280;5880;52.342;9.662;2023-09-07T03:42:19;101575.91;;;22.45;45.61
11648;BME280;5880;52.342;9.662;2023-09-07T03:44:45;101572.84;;;22.42;45.78
11648;BME280;5880;52.342;9.662;2023-09-07T03:47:13;101577.28;;;22.43;45.43
11648;BME280;5880;52.342;9.662;2023-09-07T03:49:39;101580.41;;;22.36;45.71
11648;BME280;5880;52.342;9.662;2023-09-07T03:52:04;101584.31;;;22.35;45.68
11648;BME280;5880;52.342;9.662;2023-09-07T03:54:31;101582.66;;;22.34;45.74
11648;BME280;5880;52.342;9.662;2023-09-07T03:56:57;101592.94;;;22.33;45.82
11648;BME280;5880;52.342;9.662;2023-09-07T03:59:23;101596.03;;;22.32;45.87
11648;BME280;5880;52.342;9.662;2023-09-07T04:01:49;101589.66;;;22.26;45.79
11648;BME280;5880;52.342;9.662;2023-09-07T04:04:15;101594.94;;;22.28;45.74
11648;BME280;5880;52.342;9.662;2023-09-07T04:06:41;101593.28;;;22.27;45.86
11648;BME280;5880;52.342;9.662;2023-09-07T04:09:06;101591.06;;;22.24;45.90
11648;BME280;5880;52.342;9.662;2023-09-07T04:11:32;101590.22;;;22.23;45.94
11648;BME280;5880;52.342;9.662;2023-09-07T04:13:58;101581.59;;;22.20;45.83
11648;BME280;5880;52.342;9.662;2023-09-07T04:16:23;101600.00;;;22.21;45.82
11648;BME280;5880;52.342;9.662;2023-09-07T04:18:49;101597.47;;;22.19;45.93
11648;BME280;5880;52.342;9.662;2023-09-07T04:21:14;101594.72;;;22.14;45.77
11648;BME280;5880;52.342;9.662;2023-09-07T04:23:40;101598.31;;;22.14;45.92
11648;BME280;5880;52.342;9.662;2023-09-07T04:26:11;101594.72;;;22.14;46.05
11648;BME280;5880;52.342;9.662;2023-09-07T04:28:38;101602.81;;;22.10;46.16
11648;BME280;5880;52.342;9.662;2023-09-07T04:31:05;101592.53;;;22.06;46.13
11648;BME280;5880;52.342;9.662;2023-09-07T04:33:32;101598.09;;;22.06;46.15
11648;BME280;5880;52.342;9.662;2023-09-07T04:36:13;101599.50;;;22.03;46.19
11648;BME280;5880;52.342;9.662;2023-09-07T04:38:41;101611.19;;;22.00;46.00
11648;BME280;5880;52.342;9.662;2023-09-07T04:41:12;101609.00;;;21.97;46.10
11648;BME280;5880;52.342;9.662;2023-09-07T04:43:41;101608.16;;;21.97;46.28
11648;BME280;5880;52.342;9.662;2023-09-07T04:46:10;101617.94;;;21.94;46.16
11648;BME280;5880;52.342;9.662;2023-09-07T04:48:36;101608.75;;;21.88;46.31
11648;BME280;5880;52.342;9.662;2023-09-07T04:51:03;101600.97;;;21.85;46.13
11648;BME280;5880;52.342;9.662;2023-09-07T04:53:34;101604.59;;;21.86;46.16
11648;BME280;5880;52.342;9.662;2023-09-07T04:56:01;101616.53;;;21.86;46.12
11648;BME280;5880;52.342;9.662;2023-09-07T04:58:27;101609.31;;;21.85;46.25
11648;BME280;5880;52.342;9.662;2023-09-07T05:00:53;101609.59;;;21.84;46.50
11648;BME280;5880;52.342;9.662;2023-09-07T05:03:19;101591.56;;;21.76;46.58
11648;BME280;5880;52.342;9.662;2023-09-07T05:05:50;101606.25;;;21.82;46.46
11648;BME280;5880;52.342;9.662;2023-09-07T05:08:16;101611.81;;;21.82;46.42
11648;BME280;5880;52.342;9.662;2023-09-07T05:10:42;101593.78;;;21.74;46.54
11648;BME280;5880;52.342;9.662;2023-09-07T05:13:08;101602.66;;;21.81;46.86
11648;BME280;5880;52.342;9.662;2023-09-07T05:15:33;101597.13;;;21.76;46.90
11648;BME280;5880;52.342;9.662;2023-09-07T05:17:59;101601.00;;;21.80;46.79
11648;BME280;5880;52.342;9.662;2023-09-07T05:20:25;101599.88;;;21.81;46.80
11648;BME280;5880;52.342;9.662;2023-09-07T05:22:52;101602.09;;;21.79;46.94
11648;BME280;5880;52.342;9.662;2023-09-07T05:25:18;101607.94;;;21.83;47.02
11648;BME280;5880;52.342;9.662;2023-09-07T05:27:45;101611.28;;;21.85;47.23
11648;BME280;5880;52.342;9.662;2023-09-07T05:30:11;101604.63;;;21.81;47.23
11648;BME280;5880;52.342;9.662;2023-09-07T05:32:37;101612.34;;;21.89;47.64
11648;BME280;5880;52.342;9.662;2023-09-07T05:35:03;101622.94;;;21.92;47.73
11648;BME280;5880;52.342;9.662;2023-09-07T05:37:30;101622.09;;;21.97;47.57
11648;BME280;5880;52.342;9.662;2023-09-07T05:39:55;101622.63;;;21.99;47.80
11648;BME280;5880;52.342;9.662;2023-09-07T05:42:21;101620.09;;;22.02;47.97
11648;BME280;5880;52.342;9.662;2023-09-07T05:44:46;101610.31;;;22.10;47.97
11648;BME280;5880;52.342;9.662;2023-09-07T05:47:12;101611.72;;;22.12;48.19
11648;BME280;5880;52.342;9.662;2023-09-07T05:49:38;101607.22;;;22.17;48.29
11648;BME280;5880;52.342;9.662;2023-09-07T05:52:04;101600.25;;;22.19;48.31
11648;BME280;5880;52.342;9.662;2023-09-07T05:54:30;101604.69;;;22.25;48.43
11648;BME280;5880;52.342;9.662;2023-09-07T05:56:55;101613.53;;;22.38;48.51
11648;BME280;5880;52.342;9.662;2023-09-07T05:59:21;101629.66;;;22.46;48.44
11648;BME280;5880;52.342;9.662;2023-09-07T06:01:46;101617.38;;;22.47;48.41
11648;BME280;5880;52.342;9.662;2023-09-07T06:04:12;101626.53;;;22.52;48.58
11648;BME280;5880;52.342;9.662;2023-09-07T06:06:38;101618.69;;;22.60;48.54
11648;BME280;5880;52.342;9.662;2023-09-07T06:09:04;101618.09;;;22.63;48.52
11648;BME280;5880;52.342;9.662;2023-09-07T06:11:30;101625.31;;;22.69;48.55
11648;BME280;5880;52.342;9.662;2023-09-07T06:13:58;101626.38;;;22.78;48.94
11648;BME280;5880;52.342;9.662;2023-09-07T06:16:23;101615.34;;;22.92;49.55
11648;BME280;5880;52.342;9.662;2023-09-07T06:18:49;101634.94;;;23.21;50.37
11648;BME280;5880;52.342;9.662;2023-09-07T06:21:15;101635.75;;;23.51;50.16
11648;BME280;5880;52.342;9.662;2023-09-07T06:23:40;101631.28;;;23.79;50.09
11648;BME280;5880;52.342;9.662;2023-09-07T06:26:07;101638.97;;;24.11;49.78
11648;BME280;5880;52.342;9.662;2023-09-07T06:28:32;101639.59;;;24.46;49.35
11648;BME280;5880;52.342;9.662;2023-09-07T06:30:59;101634.72;;;24.76;49.64
11648;BME280;5880;52.342;9.662;2023-09-07T06:33:24;101644.78;;;25.10;49.91
11648;BME280;5880;52.342;9.662;2023-09-07T06:35:50;101640.00;;;25.29;49.67
11648;BME280;5880;52.342;9.662;2023-09-07T06:38:16;101641.28;;;25.51;nan
11648;BME280;5880;52.342;9.662;2023-09-07T06:40:48;101645.75;;;25.65;48.49
11648;BME280;5880;52.342;9.662;2023-09-07T06:43:14;101641.72;;;25.72;48.27
11648;BME280;5880;52.342;9.662;2023-09-07T06:45:40;101641.19;;;25.83;48.12
11648;BME280;5880;52.342;9.662;2023-09-07T06:48:06;101644.94;;;25.93;48.08
11648;BME280;5880;52.342;9.662;2023-09-07T06:50:31;101635.28;;;25.99;47.94
11648;BME280;5880;52.342;9.662;2023-09-07T06:52:57;101649.63;;;26.11;47.83
11648;BME280;5880;52.342;9.662;2023-09-07T06:55:23;101648.56;;;26.21;47.59
11648;BME280;5880;52.342;9.662;2023-09-07T06:57:48;101644.44;;;26.41;47.12
11648;BME280;5880;52.342;9.662;2023-09-07T07:00:15;101644.78;;;26.76;46.85
11648;BME280;5880;52.342;9.662;2023-09-07T07:02:40;101649.91;;;27.19;47.06
11648;BME280;5880;52.342;9.662;2023-09-07T07:05:06;101659.13;;;27.73;46.94
11648;BME280;5880;52.342;9.662;2023-09-07T07:07:33;101650.19;;;28.28;46.90
11648;BME280;5880;52.342;9.662;2023-09-07T07:10:00;101654.72;;;28.81;47.12
11648;BME280;5880;52.342;9.662;2023-09-07T07:12:25;101651.03;;;29.33;47.23
11648;BME280;5880;52.342;9.662;2023-09-07T07:14:51;101652.69;;;29.90;46.90
11648;BME280;5880;52.342;9.662;2023-09-07T07:17:17;101652.50;;;30.46;46.26
11648;BME280;5880;52.342;9.662;2023-09-07T07:19:43;101645.63;;;30.98;45.59
11648;BME280;5880;52.342;9.662;2023-09-07T07:22:09;101648.84;;;31.54;44.97
11648;BME280;5880;52.342;9.662;2023-09-07T07:24:34;101645.59;;;32.01;44.03
11648;BME280;5880;52.342;9.662;2023-09-07T07:27:00;101649.88;;;32.35;43.04
11648;BME280;5880;52.342;9.662;2023-09-07T07:29:26;101652.22;;;32.58;42.37
11648;BME280;5880;52.342;9.662;2023-09-07T07:31:52;101650.84;;;32.80;41.80
11648;BME280;5880;52.342;9.662;2023-09-07T07:34:18;101653.19;;;33.18;41.07
11648;BME280;5880;52.342;9.662;2023-09-07T07:36:43;101652.31;;;33.62;41.21
11648;BME280;5880;52.342;9.662;2023-09-07T07:39:09;101646.66;;;34.10;40.73
11648;BME280;5880;52.342;9.662;2023-09-07T07:41:35;101646.41;;;34.54;39.86
11648;BME280;5880;52.342;9.662;2023-09-07T07:44:01;101652.47;;;34.72;39.23
11648;BME280;5880;52.342;9.662;2023-09-07T07:46:27;101645.41;;;34.62;38.46
11648;BME280;5880;52.342;9.662;2023-09-07T07:48:52;101649.97;;;34.31;37.84
11648;BME280;5880;52.342;9.662;2023-09-07T07:51:18;101655.59;;;33.96;37.21
11648;BME280;5880;52.342;9.662;2023-09-07T07:53:44;101656.88;;;33.51;37.61
11648;BME280;5880;52.342;9.662;2023-09-07T07:56:17;101649.56;;;33.06;37.07
11648;BME280;5880;52.342;9.662;2023-09-07T07:58:43;101661.75;;;32.66;37.47
11648;BME280;5880;52.342;9.662;2023-09-07T08:01:17;101652.03;;;32.26;37.81
11648;BME280;5880;52.342;9.662;2023-09-07T08:03:44;101652.41;;;31.88;37.74
11648;BME280;5880;52.342;9.662;2023-09-07T08:06:10;101646.72;;;31.51;37.63
11648;BME280;5880;52.342;9.662;2023-09-07T08:08:37;101640.75;;;31.19;37.88
11648;BME280;5880;52.342;9.662;2023-09-07T08:11:03;101640.53;;;30.91;38.11
11648;BME280;5880;52.342;9.662;2023-09-07T08:13:32;101640.75;;;30.65;38.44
11648;BME280;5880;52.342;9.662;2023-09-07T08:16:01;101639.09;;;30.43;39.01
11648;BME280;5880;52.342;9.662;2023-09-07T08:18:27;101644.84;;;30.25;39.03
11648;BME280;5880;52.342;9.662;2023-09-07T08:20:53;101644.59;;;30.09;39.31
11648;BME280;5880;52.342;9.662;2023-09-07T08:23:21;101634.94;;;29.90;39.34
11648;BME280;5880;52.342;9.662;2023-09-07T08:25:47;101635.66;;;29.78;39.20
11648;BME280;5880;52.342;9.662;2023-09-07T08:28:13;101633.03;;;29.64;39.28
11648;BME280;5880;52.342;9.662;2023-09-07T08:30:41;101634.22;;;29.54;39.70
11648;BME280;5880;52.342;9.662;2023-09-07T08:33:07;101635.44;;;29.44;40.12
11648;BME280;5880;52.342;9.662;2023-09-07T08:35:33;101628.19;;;29.35;40.04
11648;BME280;5880;52.342;9.662;2023-09-07T08:38:01;101634.81;;;29.30;40.41
11648;BME280;5880;52.342;9.662;2023-09-07T08:40:30;101637.00;;;29.24;40.43
11648;BME280;5880;52.342;9.662;2023-09-07T08:43:01;101634.53;;;29.14;40.11
11648;BME280;5880;52.342;9.662;2023-09-07T08:45:31;101637.16;;;29.19;40.58
11648;BME280;5880;52.342;9.662;2023-09-07T08:48:02;101638.66;;;29.17;40.60
11648;BME280;5880;52.342;9.662;2023-09-07T08:50:30;101642.97;;;29.14;40.44
11648;BME280;5880;52.342;9.662;2023-09-07T08:52:56;101634.03;;;29.12;40.29
11648;BME280;5880;52.342;9.662;2023-09-07T08:55:25;101644.97;;;29.14;40.84
11648;BME280;5880;52.342;9.662;2023-09-07T08:57:51;101637.84;;;29.16;41.00
11648;BME280;5880;52.342;9.662;2023-09-07T09:00:17;101642.78;;;29.19;40.59
11648;BME280;5880;52.342;9.662;2023-09-07T09:02:46;101649.06;;;29.34;40.90
11648;BME280;5880;52.342;9.662;2023-09-07T09:05:14;101641.34;;;29.60;40.62
11648;BME280;5880;52.342;9.662;2023-09-07T09:07:40;101642.75;;;29.84;40.81
11648;BME280;5880;52.342;9.662;2023-09-07T09:10:08;101645.28;;;30.06;41.07
11648;BME280;5880;52.342;9.662;2023-09-07T09:12:34;101631.81;;;30.42;41.34
11648;BME280;5880;52.342;9.662;2023-09-07T09:15:01;101640.19;;;30.92;40.51
11648;BME280;5880;52.342;9.662;2023-09-07T09:17:29;101638.59;;;31.16;40.29
11648;BME280;5880;52.342;9.662;2023-09-07T09:19:55;101638.78;;;31.32;39.91
11648;BME280;5880;52.342;9.662;2023-09-07T09:22:21;101644.34;;;31.41;39.39
11648;BME280;5880;52.342;9.662;2023-09-07T09:24:48;101641.63;;;31.44;39.16
11648;BME280;5880;52.342;9.662;2023-09-07T09:27:14;101640.72;;;31.40;39.08
11648;BME280;5880;52.342;9.662;2023-09-07T09:29:39;101636.31;;;31.30;39.15
11648;BME280;5880;52.342;9.662;2023-09-07T09:32:07;101643.00;;;31.26;39.18
11648;BME280;5880;52.342;9.662;2023-09-07T09:34:37;101642.38;;;31.20;38.99
11648;BME280;5880;52.342;9.662;2023-09-07T09:37:04;101632.84;;;31.12;38.93
11648;BME280;5880;52.342;9.662;2023-09-07T09:39:30;101624.94;;;31.06;39.14
11648;BME280;5880;52.342;9.662;2023-09-07T09:41:56;101632.22;;;31.07;39.10
11648;BME280;5880;52.342;9.662;2023-09-07T09:44:23;101624.13;;;31.05;39.00
11648;BME280;5880;52.342;9.662;2023-09-07T09:46:53;101634.94;;;31.03;38.92
11648;BME280;5880;52.342;9.662;2023-09-07T09:49:22;101632.34;;;30.98;39.25
11648;BME280;5880;52.342;9.662;2023-09-07T09:51:49;101627.38;;;30.95;38.75
11648;BME280;5880;52.342;9.662;2023-09-07T09:54:19;101628.88;;;30.92;39.07
11648;BME280;5880;52.342;9.662;2023-09-07T09:56:45;101623.00;;;30.85;38.67
11648;BME280;5880;52.342;9.662;2023-09-07T09:59:13;101620.53;;;30.84;38.69
11648;BME280;5880;52.342;9.662;2023-09-07T10:01:47;101619.19;;;30.81;39.05
11648;BME280;5880;52.342;9.662;2023-09-07T10:04:17;101615.03;;;30.79;38.89
11648;BME280;5880;52.342;9.662;2023-09-07T10:06:55;101610.38;;;30.83;38.82
11648;BME280;5880;52.342;9.662;2023-09-07T10:09:21;101617.72;;;30.84;38.82
11648;BME280;5880;52.342;9.662;2023-09-07T10:11:53;101609.03;;;30.89;39.06
11648;BME280;5880;52.342;9.662;2023-09-07T10:14:19;101610.66;;;30.90;38.73
11648;BME280;5880;52.342;9.662;2023-09-07T10:16:48;101599.50;;;30.94;38.13
11648;BME280;5880;52.342;9.662;2023-09-07T10:19:22;101601.88;;;31.04;38.44
11648;BME280;5880;52.342;9.662;2023-09-07T10:21:50;101593.81;;;31.15;38.29
11648;BME280;5880;52.342;9.662;2023-09-07T10:24:28;101592.88;;;31.35;37.85
11648;BME280;5880;52.342;9.662;2023-09-07T10:27:03;101600.59;;;31.47;38.26
11648;BME280;5880;52.342;9.662;2023-09-07T10:29:46;101591.41;;;31.50;38.36
11648;BME280;5880;52.342;9.662;2023-09-07T10:32:15;101592.13;;;31.47;37.98
11648;BME280;5880;52.342;9.662;2023-09-07T10:34:42;101587.16;;;31.44;38.10
11648;BME280;5880;52.342;9.662;2023-09-07T10:37:14;101587.97;;;31.44;37.97
11648;BME280;5880;52.342;9.662;2023-09-07T10:39:43;101590.78;;;31.44;38.36
11648;BME280;5880;52.342;9.662;2023-09-07T10:42:23;101585.72;;;31.38;37.65
11648;BME280;5880;52.342;9.662;2023-09-07T10:44:50;101589.22;;;31.34;37.62
11648;BME280;5880;52.342;9.662;2023-09-07T10:47:16;101591.13;;;31.30;37.29
11648;BME280;5880;52.342;9.662;2023-09-07T10:49:42;101588.31;;;31.30;37.90
11648;BME280;5880;52.342;9.662;2023-09-07T10:52:08;101588.50;;;31.25;37.78
11648;BME280;5880;52.342;9.662;2023-09-07T10:54:34;101581.22;;;31.24;37.39
11648;BME280;5880;52.342;9.662;2023-09-07T10:57:11;101582.88;;;31.25;37.45
11648;BME280;5880;52.342;9.662;2023-09-07T10:59:46;101575.94;;;31.23;37.35
11648;BME280;5880;52.342;9.662;2023-09-07T11:02:11;101571.81;;;31.20;37.48
11648;BME280;5880;52.342;9.662;2023-09-07T11:04:37;101575.44;;;31.21;37.05
11648;BME280;5880;52.342;9.662;2023-09-07T11:07:03;101572.63;;;31.21;37.35
11648;BME280;5880;52.342;9.662;2023-09-07T11:09:32;101556.88;;;31.20;37.15
11648;BME280;5880;52.342;9.662;2023-09-07T11:12:04;101566.97;;;31.21;37.10
11648;BME280;5880;52.342;9.662;2023-09-07T11:14:30;101566.28;;;31.24;37.35
11648;BME280;5880;52.342;9.662;2023-09-07T11:16:56;101561.00;;;31.22;37.00
11648;BME280;5880;52.342;9.662;2023-09-07T11:19:22;101561.13;;;31.26;36.96
11648;BME280;5880;52.342;9.662;2023-09-07T11:21:48;101558.66;;;31.24;36.70
11648;BME280;5880;52.342;9.662;2023-09-07T11:24:13;101559.22;;;31.30;36.71
11648;BME280;5880;52.342;9.662;2023-09-07T11:26:44;101563.34;;;31.32;36.85
11648;BME280;5880;52.342;9.662;2023-09-07T11:29:15;101558.97;;;31.35;36.74
11648;BME280;5880;52.342;9.662;2023-09-07T11:31:41;101549.22;;;31.32;36.76
11648;BME280;5880;52.342;9.662;2023-09-07T11:34:14;101553.16;;;31.40;36.66
11648;BME280;5880;52.342;9.662;2023-09-07T11:36:41;101560.75;;;31.40;36.89
11648;BME280;5880;52.342;9.662;2023-09-07T11:39:07;101551.47;;;31.39;36.40
11648;BME280;5880;52.342;9.662;2023-09-07T11:41:43;101542.50;;;31.37;36.44
11648;BME280;5880;52.342;9.662;2023-09-07T11:44:10;101545.50;;;31.41;37.03
11648;BME280;5880;52.342;9.662;2023-09-07T11:46:36;101540.69;;;31.41;36.61
11648;BME280;5880;52.342;9.662;2023-09-07T11:49:02;101545.97;;;31.43;36.31
11648;BME280;5880;52.342;9.662;2023-09-07T11:51:30;101531.88;;;31.43;36.32
11648;BME280;5880;52.342;9.662;2023-09-07T11:53:56;101544.09;;;31.47;36.11
11648;BME280;5880;52.342;9.662;2023-09-07T11:56:22;101538.56;;;31.50;36.24
11648;BME280;5880;52.342;9.662;2023-09-07T11:58:47;101539.84;;;31.53;36.15
11648;BME280;5880;52.342;9.662;2023-09-07T12:01:13;101533.72;;;31.51;35.95
11648;BME280;5880;52.342;9.662;2023-09-07T12:03:42;101529.16;;;31.59;35.83
11648;BME280;5880;52.342;9.662;2023-09-07T12:06:08;101532.31;;;31.57;35.57
11648;BME280;5880;52.342;9.662;2023-09-07T12:08:35;101530.31;;;31.58;35.54
11648;BME280;5880;52.342;9.662;2023-09-07T12:11:01;101527.72;;;31.65;35.38
11648;BME280;5880;52.342;9.662;2023-09-07T12:13:26;101525.72;;;31.65;35.14
11648;BME280;5880;52.342;9.662;2023-09-07T12:15:52;101529.38;;;31.66;35.07
11648;BME280;5880;52.342;9.662;2023-09-07T12:18:18;101530.75;;;31.72;35.09
11648;BME280;5880;52.342;9.662;2023-09-07T12:20:43;101521.47;;;31.71;34.94
11648;BME280;5880;52.342;9.662;2023-09-07T12:23:10;101513.94;;;31.75;34.97
11648;BME280;5880;52.342;9.662;2023-09-07T12:25:36;101521.34;;;31.80;34.66
11648;BME280;5880;52.342;9.662;2023-09-07T12:28:03;101525.94;;;31.85;34.69
11648;BME280;5880;52.342;9.662;2023-09-07T12:30:28;101528.03;;;31.88;34.86
11648;BME280;5880;52.342;9.662;2023-09-07T12:32:54;101512.03;;;31.92;34.73
11648;BME280;5880;52.342;9.662;2023-09-07T12:35:20;101517.28;;;31.93;34.35
11648;BME280;5880;52.342;9.662;2023-09-07T12:37:46;101509.78;;;31.98;34.67
11648;BME280;5880;52.342;9.662;2023-09-07T12:40:12;101517.19;;;32.02;34.21
11648;BME280;5880;52.342;9.662;2023-09-07T12:42:44;101516.47;;;32.05;34.08
11648;BME280;5880;52.342;9.662;2023-09-07T12:45:10;101508.72;;;32.02;34.02
11648;BME280;5880;52.342;9.662;2023-09-07T12:47:36;101510.94;;;32.09;34.08
11648;BME280;5880;52.342;9.662;2023-09-07T12:50:02;101502.09;;;32.10;33.99
11648;BME280;5880;52.342;9.662;2023-09-07T12:52:28;101505.03;;;32.14;34.04
11648;BME280;5880;52.342;9.662;2023-09-07T12:54:54;101507.97;;;32.17;33.84
11648;BME280;5880;52.342;9.662;2023-09-07T12:57:19;101498.75;;;32.21;33.56
11648;BME280;5880;52.342;9.662;2023-09-07T12:59:45;101499.22;;;32.23;33.81
11648;BME280;5880;52.342;9.662;2023-09-07T13:02:10;101496.06;;;32.24;33.51